Time;durP1;ratioP1;P1;durP2;ratioP2;P2;SDS_P1;SDS_P2;PMS_P1;PMS_P2;Temp;Humidity;BMP_temperature;BMP_pressure;BME280_temperature;BME280_humidity;BME280_pressure;Samples;Min_cycle;Max_cycle;Signal;HPM_P1;HPM_P2
2021/12/11 00:00:14;;;;;;;29.25;12.73;;;;;;;;;;5041295;28;20092;-80
2021/12/11 00:02:41;;;;;;;26.00;10.95;;;;;;;;;;5039002;28;20587;-82
2021/12/11 00:05:09;;;;;;;30.00;12.85;;;;;;;;;;5045416;28;20073;-81
2021/12/11 00:07:36;;;;;;;22.08;11.40;;;;;;;;;;5056416;28;20065;-82
2021/12/11 00:10:25;;;;;;;21.38;11.20;;;;;;;;;;5058919;28;20054;-82
2021/12/11 00:12:54;;;;;;;23.42;10.60;;;;;;;;;;5048774;28;20058;-80
2021/12/11 00:15:25;;;;;;;24.30;11.40;;;;;;;;;;5048615;28;20583;-81
2021/12/11 00:17:59;;;;;;;24.63;11.27;;;;;;;;;;5031464;28;20081;-82
2021/12/11 00:20:29;;;;;;;22.98;11.10;;;;;;;;;;5038732;28;20057;-82
2021/12/11 00:22:56;;;;;;;24.27;11.93;;;;;;;;;;5029988;28;20575;-82
2021/12/11 00:25:23;;;;;;;33.20;12.05;;;;;;;;;;5041173;28;20127;-81
2021/12/11 00:27:51;;;;;;;27.65;12.45;;;;;;;;;;5043101;28;20420;-82
2021/12/11 00:30:29;;;;;;;24.67;12.93;;;;;;;;;;5042726;28;20894;-83
2021/12/11 00:32:59;;;;;;;27.10;13.55;;;;;;;;;;5047442;28;20057;-81
2021/12/11 00:35:27;;;;;;;24.52;12.48;;;;;;;;;;5046090;28;20108;-82
2021/12/11 00:37:59;;;;;;;26.77;12.63;;;;;;;;;;5045510;28;20112;-80
2021/12/11 00:40:25;;;;;;;23.65;11.85;;;;;;;;;;5041486;28;20057;-81
2021/12/11 00:42:56;;;;;;;27.13;12.80;;;;;;;;;;5050059;28;20111;-81
2021/12/11 00:45:26;;;;;;;29.08;12.13;;;;;;;;;;5048159;28;20054;-82
2021/12/11 00:47:55;;;;;;;27.98;11.40;;;;;;;;;;5038688;28;20054;-80
2021/12/11 00:50:25;;;;;;;25.60;10.93;;;;;;;;;;5037625;28;20050;-82
2021/12/11 00:52:53;;;;;;;24.60;11.35;;;;;;;;;;5033163;28;20093;-82
2021/12/11 00:55:20;;;;;;;21.98;11.07;;;;;;;;;;5048191;28;20050;-79
2021/12/11 00:57:47;;;;;;;23.60;11.05;;;;;;;;;;5036811;28;20529;-81
2021/12/11 01:00:17;;;;;;;21.90;12.00;;;;;;;;;;5032181;28;20081;-81
2021/12/11 01:02:44;;;;;;;27.98;13.57;;;;;;;;;;5049246;28;20106;-80
2021/12/11 01:05:11;;;;;;;22.80;11.50;;;;;;;;;;5049517;28;20080;-80
2021/12/11 01:07:38;;;;;;;22.67;11.52;;;;;;;;;;5050155;28;20105;-81
2021/12/11 01:10:12;;;;;;;24.27;11.38;;;;;;;;;;5040350;28;20513;-80
2021/12/11 01:12:47;;;;;;;23.05;11.88;;;;;;;;;;5046563;28;20053;-82
2021/12/11 01:15:16;;;;;;;25.48;11.95;;;;;;;;;;5043510;28;20049;-79
2021/12/11 01:17:58;;;;;;;21.35;10.50;;;;;;;;;;5032696;28;20081;-82
2021/12/11 01:20:35;;;;;;;19.92;9.82;;;;;;;;;;5045992;28;20057;-79
2021/12/11 01:23:17;;;;;;;19.90;10.30;;;;;;;;;;5030538;28;20112;-79
2021/12/11 01:25:44;;;;;;;25.48;10.65;;;;;;;;;;5071505;28;20056;-81
2021/12/11 01:28:13;;;;;;;23.75;11.18;;;;;;;;;;5045612;28;20497;-83
2021/12/11 01:30:40;;;;;;;23.35;11.27;;;;;;;;;;5050266;28;20084;-82
2021/12/11 01:33:09;;;;;;;25.40;10.75;;;;;;;;;;5049586;28;20493;-81
2021/12/11 01:35:35;;;;;;;26.63;11.70;;;;;;;;;;5049141;28;20093;-81
2021/12/11 01:38:10;;;;;;;23.48;11.18;;;;;;;;;;5047745;28;20053;-82
2021/12/11 01:40:36;;;;;;;24.95;11.25;;;;;;;;;;5032595;28;20130;-80
2021/12/11 01:43:05;;;;;;;21.92;10.88;;;;;;;;;;5041348;28;20058;-81
2021/12/11 01:45:32;;;;;;;24.58;10.70;;;;;;;;;;5032062;28;20054;-80
2021/12/11 01:47:58;;;;;;;27.35;11.20;;;;;;;;;;5036678;28;20057;-82
2021/12/11 01:50:39;;;;;;;33.05;13.05;;;;;;;;;;5047984;28;20088;-79
2021/12/11 01:53:08;;;;;;;28.45;11.85;;;;;;;;;;5048066;28;20061;-81
2021/12/11 01:55:38;;;;;;;28.52;12.95;;;;;;;;;;5045155;28;20089;-79
2021/12/11 01:58:06;;;;;;;26.27;12.80;;;;;;;;;;5048521;28;20088;-81
2021/12/11 02:00:36;;;;;;;24.60;12.05;;;;;;;;;;5030638;28;20058;-81
2021/12/11 02:03:06;;;;;;;28.02;11.90;;;;;;;;;;5041277;28;20922;-80
2021/12/11 02:05:33;;;;;;;29.73;10.93;;;;;;;;;;5039864;28;20069;-81
2021/12/11 02:08:02;;;;;;;30.45;10.93;;;;;;;;;;5038982;28;20053;-81
2021/12/11 02:10:29;;;;;;;25.58;11.07;;;;;;;;;;5045506;28;20124;-81
2021/12/11 02:12:57;;;;;;;26.02;10.57;;;;;;;;;;5041367;28;20046;-82
2021/12/11 02:15:30;;;;;;;23.90;10.85;;;;;;;;;;5036036;28;20908;-82
2021/12/11 02:18:09;;;;;;;23.23;10.70;;;;;;;;;;5032513;28;20080;-79
2021/12/11 02:20:38;;;;;;;23.63;11.05;;;;;;;;;;5045106;28;20160;-82
2021/12/11 02:23:05;;;;;;;27.15;11.18;;;;;;;;;;5041015;28;20077;-82
2021/12/11 02:25:34;;;;;;;27.08;11.43;;;;;;;;;;5047961;28;20097;-80
2021/12/11 02:28:13;;;;;;;23.77;10.93;;;;;;;;;;5043850;28;20057;-82
2021/12/11 02:31:04;;;;;;;23.10;10.98;;;;;;;;;;5037772;28;20053;-82
2021/12/11 02:33:38;;;;;;;29.25;10.10;;;;;;;;;;5035098;28;20025;-81
2021/12/11 02:36:13;;;;;;;21.65;10.38;;;;;;;;;;5037426;28;20192;-82
2021/12/11 02:38:51;;;;;;;24.17;10.57;;;;;;;;;;5049329;28;20057;-80
2021/12/11 02:41:23;;;;;;;29.83;10.88;;;;;;;;;;5049748;28;20058;-81
2021/12/11 02:43:55;;;;;;;22.15;10.73;;;;;;;;;;5045365;28;20053;-81
2021/12/11 02:46:25;;;;;;;21.75;9.85;;;;;;;;;;5042842;28;20100;-80
2021/12/11 02:48:54;;;;;;;23.67;9.83;;;;;;;;;;5040370;28;20512;-79
2021/12/11 02:51:30;;;;;;;27.38;9.98;;;;;;;;;;5043187;28;20338;-82
2021/12/11 02:53:59;;;;;;;21.88;10.43;;;;;;;;;;5042896;28;20054;-81
2021/12/11 02:56:25;;;;;;;22.63;9.50;;;;;;;;;;5034259;28;20505;-81
2021/12/11 02:58:53;;;;;;;24.23;10.48;;;;;;;;;;5041023;28;20112;-81
2021/12/11 03:01:25;;;;;;;20.73;9.55;;;;;;;;;;5043506;28;20082;-82
2021/12/11 03:04:00;;;;;;;20.77;9.45;;;;;;;;;;5046069;28;20055;-81
2021/12/11 03:06:35;;;;;;;23.27;9.63;;;;;;;;;;5043264;28;20537;-81
2021/12/11 03:09:02;;;;;;;24.83;10.15;;;;;;;;;;5032903;28;20076;-81
2021/12/11 03:11:30;;;;;;;22.38;9.77;;;;;;;;;;5042941;28;20084;-81
2021/12/11 03:13:57;;;;;;;20.92;9.88;;;;;;;;;;5046603;28;20050;-82
2021/12/11 03:16:25;;;;;;;22.30;10.05;;;;;;;;;;5037040;28;20194;-80
2021/12/11 03:18:52;;;;;;;23.60;11.18;;;;;;;;;;5049228;28;20053;-81
2021/12/11 03:21:20;;;;;;;23.75;10.15;;;;;;;;;;5053696;28;20049;-80
2021/12/11 03:23:47;;;;;;;22.05;10.02;;;;;;;;;;5048206;28;20085;-82
2021/12/11 03:26:13;;;;;;;22.88;10.45;;;;;;;;;;5049780;28;20451;-82
2021/12/11 03:28:39;;;;;;;24.17;9.98;;;;;;;;;;5043069;28;20054;-80
2021/12/11 03:31:07;;;;;;;26.58;11.40;;;;;;;;;;5045098;28;20085;-81
2021/12/11 03:33:35;;;;;;;25.65;10.75;;;;;;;;;;5051417;28;20139;-82
2021/12/11 03:36:03;;;;;;;30.50;10.77;;;;;;;;;;5050563;28;20156;-79
2021/12/11 03:38:30;;;;;;;28.95;10.02;;;;;;;;;;5051226;28;20061;-82
2021/12/11 03:40:56;;;;;;;27.58;10.38;;;;;;;;;;5043723;28;20532;-81
2021/12/11 03:43:24;;;;;;;27.98;10.95;;;;;;;;;;5050677;28;20084;-82
2021/12/11 03:45:52;;;;;;;27.80;11.00;;;;;;;;;;5042206;28;20097;-81
2021/12/11 03:48:25;;;;;;;24.10;11.13;;;;;;;;;;5047479;28;20049;-81
2021/12/11 03:50:51;;;;;;;26.45;10.88;;;;;;;;;;5042378;28;20053;-82
2021/12/11 03:53:18;;;;;;;22.38;11.00;;;;;;;;;;5048103;28;20080;-81
2021/12/11 03:55:53;;;;;;;24.27;10.50;;;;;;;;;;5033393;28;20069;-79
2021/12/11 03:58:20;;;;;;;23.70;10.52;;;;;;;;;;5047777;28;20076;-81
2021/12/11 04:00:49;;;;;;;25.13;11.43;;;;;;;;;;5050199;28;20104;-83
2021/12/11 04:03:17;;;;;;;24.48;10.55;;;;;;;;;;5044468;28;20414;-79
2021/12/11 04:05:44;;;;;;;30.15;11.70;;;;;;;;;;5031848;28;20999;-78
2021/12/11 04:08:14;;;;;;;24.92;11.05;;;;;;;;;;5040246;28;20427;-82
2021/12/11 04:10:40;;;;;;;28.83;11.43;;;;;;;;;;5039452;28;20124;-82
2021/12/11 04:13:08;;;;;;;23.33;10.90;;;;;;;;;;5042943;28;20115;-81
2021/12/11 04:15:36;;;;;;;22.30;10.43;;;;;;;;;;5042873;28;20594;-82
2021/12/11 04:18:04;;;;;;;24.95;10.98;;;;;;;;;;5043924;28;20141;-80
2021/12/11 04:20:31;;;;;;;24.10;11.27;;;;;;;;;;5050423;28;20603;-82
2021/12/11 04:22:58;;;;;;;29.00;12.77;;;;;;;;;;5041286;28;20917;-81
2021/12/11 04:25:26;;;;;;;28.27;12.30;;;;;;;;;;5050691;28;20057;-79
2021/12/11 04:27:54;;;;;;;24.58;12.02;;;;;;;;;;5050176;28;20061;-82
2021/12/11 04:30:21;;;;;;;31.48;12.20;;;;;;;;;;5045517;28;20061;-82
2021/12/11 04:32:48;;;;;;;27.20;11.75;;;;;;;;;;5043572;28;20054;-80
2021/12/11 04:35:15;;;;;;;24.55;11.52;;;;;;;;;;5050481;28;20076;-80
2021/12/11 04:37:41;;;;;;;32.70;12.15;;;;;;;;;;5049861;28;20081;-79
2021/12/11 04:40:10;;;;;;;29.67;12.57;;;;;;;;;;5035167;28;20081;-80
2021/12/11 04:45:26;;;;;;;27.35;11.45;;;;;;;;;;5050384;28;20080;-80
2021/12/11 04:47:59;;;;;;;25.15;11.85;;;;;;;;;;5051587;28;20046;-80
2021/12/11 04:50:35;;;;;;;31.27;12.27;;;;;;;;;;5049509;28;20076;-81
2021/12/11 04:53:05;;;;;;;29.02;12.07;;;;;;;;;;5048627;28;20080;-80
2021/12/11 04:58:43;;;;;;;29.27;13.13;;;;;;;;;;5050314;28;20057;-80
2021/12/11 05:01:07;;;;;;;28.55;12.57;;;;;;;;;;5051447;28;20053;-81
2021/12/11 05:04:10;;;;;;;35.22;14.20;;;;;;;;;;5048205;28;20053;-79
2021/12/11 05:11:52;;;;;;;43.33;16.15;;;;;;;;;;5044359;28;20088;-81
2021/12/11 05:14:21;;;;;;;45.50;16.88;;;;;;;;;;5049144;28;20582;-81
2021/12/11 05:16:48;;;;;;;39.63;16.85;;;;;;;;;;5049445;28;20053;-80
2021/12/11 05:19:14;;;;;;;38.17;16.08;;;;;;;;;;5048322;28;20049;-79
2021/12/11 05:21:41;;;;;;;39.97;15.88;;;;;;;;;;5038410;28;20050;-81
2021/12/11 05:24:08;;;;;;;36.95;14.75;;;;;;;;;;5041393;28;20054;-80
2021/12/11 05:26:36;;;;;;;42.67;16.17;;;;;;;;;;5050625;28;20082;-80
2021/12/11 05:29:04;;;;;;;38.30;15.43;;;;;;;;;;5050684;28;20054;-80
2021/12/11 05:31:30;;;;;;;36.65;15.63;;;;;;;;;;5049373;28;20147;-79
2021/12/11 05:33:57;;;;;;;40.92;15.95;;;;;;;;;;5050314;28;20069;-79
2021/12/11 05:36:27;;;;;;;56.42;18.55;;;;;;;;;;5040210;28;20089;-80
2021/12/11 05:38:53;;;;;;;60.47;19.02;;;;;;;;;;5036059;28;20054;-81
2021/12/11 05:41:20;;;;;;;56.85;20.33;;;;;;;;;;5046588;28;20072;-80
2021/12/11 05:43:48;;;;;;;70.90;20.90;;;;;;;;;;5042345;28;20089;-79
2021/12/11 05:46:15;;;;;;;64.95;20.60;;;;;;;;;;5030608;28;20793;-80
2021/12/11 05:48:43;;;;;;;61.20;21.48;;;;;;;;;;5035208;28;20523;-80
2021/12/11 05:51:10;;;;;;;66.45;21.55;;;;;;;;;;5041717;28;20867;-80
2021/12/11 05:53:37;;;;;;;70.88;22.92;;;;;;;;;;5045154;28;20054;-80
2021/12/11 05:56:09;;;;;;;74.22;22.15;;;;;;;;;;5042908;28;20092;-80
2021/12/11 06:01:27;;;;;;;69.13;21.23;;;;;;;;;;5046632;28;20120;-80
2021/12/11 06:03:57;;;;;;;81.28;23.58;;;;;;;;;;5062788;28;20061;-80
2021/12/11 06:06:24;;;;;;;89.82;24.70;;;;;;;;;;5033082;28;20058;-80
2021/12/11 06:08:50;;;;;;;105.75;27.05;;;;;;;;;;5048709;28;20108;-80
2021/12/11 06:11:16;;;;;;;91.07;25.17;;;;;;;;;;5046852;28;20151;-81
2021/12/11 06:13:43;;;;;;;108.72;27.75;;;;;;;;;;5047323;28;20464;-80
2021/12/11 06:16:10;;;;;;;115.85;26.70;;;;;;;;;;5041886;28;20564;-80
2021/12/11 06:18:37;;;;;;;90.80;24.05;;;;;;;;;;5048221;28;20053;-79
2021/12/11 06:21:03;;;;;;;98.05;26.13;;;;;;;;;;5049518;28;20034;-80
2021/12/11 06:23:30;;;;;;;91.32;25.55;;;;;;;;;;5045184;28;20045;-80
2021/12/11 06:25:56;;;;;;;108.18;24.73;;;;;;;;;;5048508;28;20082;-80
2021/12/11 06:28:25;;;;;;;88.03;25.00;;;;;;;;;;5048693;28;20049;-80
2021/12/11 06:30:57;;;;;;;89.53;24.27;;;;;;;;;;5033096;28;20065;-80
2021/12/11 06:33:26;;;;;;;85.82;24.08;;;;;;;;;;5046746;28;20058;-80
2021/12/11 06:35:55;;;;;;;95.03;24.75;;;;;;;;;;5036676;28;20057;-81
2021/12/11 06:38:23;;;;;;;95.18;27.10;;;;;;;;;;5038142;28;20053;-81
2021/12/11 06:40:50;;;;;;;98.70;26.77;;;;;;;;;;5046864;28;20464;-81
2021/12/11 06:43:17;;;;;;;107.32;28.05;;;;;;;;;;5039769;28;20832;-81
2021/12/11 06:45:44;;;;;;;98.72;26.13;;;;;;;;;;5028998;28;20053;-81
2021/12/11 06:48:11;;;;;;;110.00;27.27;;;;;;;;;;5043999;28;20038;-80
2021/12/11 06:50:38;;;;;;;108.25;25.73;;;;;;;;;;5038994;28;20189;-80
2021/12/11 06:53:08;;;;;;;93.55;23.88;;;;;;;;;;5033539;28;20520;-80
2021/12/11 06:55:34;;;;;;;98.35;25.85;;;;;;;;;;5038199;28;20050;-81
2021/12/11 06:58:02;;;;;;;92.72;25.58;;;;;;;;;;5036792;28;20065;-81
2021/12/11 07:00:28;;;;;;;95.65;25.30;;;;;;;;;;5048310;28;20069;-80
2021/12/11 07:02:55;;;;;;;85.78;24.10;;;;;;;;;;5047055;28;20046;-81
2021/12/11 07:05:22;;;;;;;92.18;26.33;;;;;;;;;;5036634;28;20103;-80
2021/12/11 07:07:49;;;;;;;95.15;25.05;;;;;;;;;;5047866;28;20128;-80
2021/12/11 07:10:17;;;;;;;90.68;25.35;;;;;;;;;;5039657;28;20124;-81
2021/12/11 07:12:44;;;;;;;86.45;25.50;;;;;;;;;;5044508;28;20103;-81
2021/12/11 07:15:10;;;;;;;84.38;23.80;;;;;;;;;;5034621;28;20089;-81
2021/12/11 07:17:37;;;;;;;87.75;25.77;;;;;;;;;;5036665;28;20112;-80
2021/12/11 07:20:05;;;;;;;92.97;25.77;;;;;;;;;;5038389;28;20136;-80
2021/12/11 07:22:31;;;;;;;91.25;26.30;;;;;;;;;;5040384;28;20050;-81
2021/12/11 07:25:00;;;;;;;86.85;26.30;;;;;;;;;;5039847;28;20057;-81
2021/12/11 07:27:27;;;;;;;88.95;24.95;;;;;;;;;;5041264;28;20061;-80
2021/12/11 07:29:53;;;;;;;78.20;24.83;;;;;;;;;;5030523;28;20053;-81
2021/12/11 07:32:19;;;;;;;77.38;26.15;;;;;;;;;;5047858;28;20092;-80
2021/12/11 07:34:46;;;;;;;79.72;23.75;;;;;;;;;;5045003;28;20085;-81
2021/12/11 07:37:13;;;;;;;81.97;23.85;;;;;;;;;;5049940;28;20037;-80
2021/12/11 07:39:40;;;;;;;77.88;23.50;;;;;;;;;;5045853;28;20534;-80
2021/12/11 07:42:06;;;;;;;76.32;24.33;;;;;;;;;;5049997;28;20049;-80
2021/12/11 07:44:33;;;;;;;72.70;24.38;;;;;;;;;;5050006;28;20068;-81
2021/12/11 07:47:00;;;;;;;68.30;21.58;;;;;;;;;;5054340;28;20061;-80
2021/12/11 07:49:27;;;;;;;68.00;22.27;;;;;;;;;;5050785;28;20058;-80
2021/12/11 07:51:54;;;;;;;65.32;21.98;;;;;;;;;;5049474;28;20092;-80
2021/12/11 07:54:20;;;;;;;71.72;22.20;;;;;;;;;;5049700;28;20586;-81
2021/12/11 07:56:47;;;;;;;78.85;22.65;;;;;;;;;;5050392;28;20939;-81
2021/12/11 07:59:13;;;;;;;79.72;23.42;;;;;;;;;;5041482;28;20168;-80
2021/12/11 08:01:42;;;;;;;83.78;24.42;;;;;;;;;;5050489;28;20050;-80
2021/12/11 08:04:09;;;;;;;72.32;23.10;;;;;;;;;;5055452;28;20052;-80
2021/12/11 08:06:36;;;;;;;73.00;22.15;;;;;;;;;;5057426;28;20104;-80
2021/12/11 08:09:07;;;;;;;76.82;23.88;;;;;;;;;;5060670;28;20509;-81
2021/12/11 08:11:34;;;;;;;76.68;23.55;;;;;;;;;;5061994;28;20065;-81
2021/12/11 08:14:02;;;;;;;75.25;24.35;;;;;;;;;;5043429;28;20111;-80
2021/12/11 08:16:34;;;;;;;71.35;22.10;;;;;;;;;;5046876;28;20053;-80
2021/12/11 08:19:01;;;;;;;74.43;23.88;;;;;;;;;;5056771;28;20112;-78
2021/12/11 08:21:27;;;;;;;75.07;23.08;;;;;;;;;;5062700;28;20833;-80
2021/12/11 08:23:55;;;;;;;74.35;24.23;;;;;;;;;;5043620;28;20053;-80
2021/12/11 08:26:24;;;;;;;73.15;22.95;;;;;;;;;;5053763;28;20073;-80
2021/12/11 08:28:51;;;;;;;82.95;24.15;;;;;;;;;;5038481;28;20564;-80
2021/12/11 08:31:19;;;;;;;79.70;23.95;;;;;;;;;;5049315;28;20175;-79
2021/12/11 08:33:46;;;;;;;73.38;22.88;;;;;;;;;;5051655;28;20057;-80
2021/12/11 08:36:12;;;;;;;78.40;22.60;;;;;;;;;;5051728;28;20076;-80
2021/12/11 08:38:39;;;;;;;73.68;22.10;;;;;;;;;;5053132;28;20056;-79
2021/12/11 08:41:06;;;;;;;65.90;20.67;;;;;;;;;;5052666;28;20843;-80
2021/12/11 08:43:33;;;;;;;73.80;21.38;;;;;;;;;;5046314;28;20041;-80
2021/12/11 08:46:10;;;;;;;75.07;22.75;;;;;;;;;;5056174;28;20049;-80
2021/12/11 08:48:39;;;;;;;74.95;22.75;;;;;;;;;;5056917;28;20048;-80
2021/12/11 08:51:08;;;;;;;58.85;20.95;;;;;;;;;;5056442;28;20093;-80
2021/12/11 08:53:36;;;;;;;51.45;19.88;;;;;;;;;;5051836;28;20119;-80
2021/12/11 08:56:04;;;;;;;55.95;19.85;;;;;;;;;;5051811;28;20053;-80
2021/12/11 08:58:31;;;;;;;55.72;21.23;;;;;;;;;;5050788;28;20143;-79
2021/12/11 09:01:00;;;;;;;73.18;21.88;;;;;;;;;;5040460;28;20104;-81
2021/12/11 09:03:53;;;;;;;85.10;28.65;;;;;;;;;;5052302;28;20064;-80
2021/12/11 09:06:23;;;;;;;102.05;30.85;;;;;;;;;;5048011;28;20527;-79
2021/12/11 09:08:55;;;;;;;101.03;35.05;;;;;;;;;;5050417;28;20057;-80
2021/12/11 09:11:25;;;;;;;90.22;27.42;;;;;;;;;;5051045;28;20076;-80
2021/12/11 09:13:58;;;;;;;84.03;25.45;;;;;;;;;;5044423;28;20060;-79
2021/12/11 09:16:27;;;;;;;83.28;23.75;;;;;;;;;;5039461;28;20107;-80
2021/12/11 09:18:56;;;;;;;81.22;24.75;;;;;;;;;;5044897;28;20053;-80
2021/12/11 09:21:35;;;;;;;110.03;29.63;;;;;;;;;;5050022;28;20050;-80
2021/12/11 09:24:06;;;;;;;95.18;28.25;;;;;;;;;;5041526;28;20042;-80
2021/12/11 09:26:45;;;;;;;84.55;25.90;;;;;;;;;;5043441;28;20132;-80
2021/12/11 09:29:14;;;;;;;87.80;24.88;;;;;;;;;;5047139;28;20054;-81
2021/12/11 09:32:01;;;;;;;98.40;27.05;;;;;;;;;;5048125;28;20052;-80
2021/12/11 09:34:31;;;;;;;95.03;28.88;;;;;;;;;;5039865;28;20088;-80
2021/12/11 09:37:01;;;;;;;127.07;27.38;;;;;;;;;;5050080;28;20523;-79
2021/12/11 09:39:33;;;;;;;215.00;30.55;;;;;;;;;;5050391;28;20506;-80
2021/12/11 09:41:59;;;;;;;217.75;33.78;;;;;;;;;;5049693;28;20108;-78
2021/12/11 09:44:29;;;;;;;222.85;45.03;;;;;;;;;;5049129;28;20053;-80
2021/12/11 09:47:04;;;;;;;261.00;31.02;;;;;;;;;;5048713;28;20552;-81
2021/12/11 09:49:35;;;;;;;223.02;30.25;;;;;;;;;;5055310;28;20040;-79
2021/12/11 09:52:15;;;;;;;251.30;30.33;;;;;;;;;;5040510;28;20081;-79
2021/12/11 09:54:42;;;;;;;204.55;25.95;;;;;;;;;;5031613;28;20218;-80
2021/12/11 09:57:09;;;;;;;87.45;21.98;;;;;;;;;;5046574;28;20077;-80
2021/12/11 09:59:37;;;;;;;321.83;36.20;;;;;;;;;;5048647;28;20977;-79
2021/12/11 10:02:05;;;;;;;290.02;30.65;;;;;;;;;;5048232;28;20088;-79
2021/12/11 10:04:36;;;;;;;200.98;26.30;;;;;;;;;;5048608;28;20064;-80
2021/12/11 10:07:25;;;;;;;282.80;29.45;;;;;;;;;;5051280;28;20988;-79
2021/12/11 10:09:53;;;;;;;139.10;31.60;;;;;;;;;;5048078;28;20563;-80
2021/12/11 10:12:26;;;;;;;239.18;33.20;;;;;;;;;;5043914;28;20081;-80
2021/12/11 10:14:59;;;;;;;197.43;24.00;;;;;;;;;;5042767;28;20324;-80
2021/12/11 10:17:32;;;;;;;165.13;21.55;;;;;;;;;;5047532;28;20128;-80
2021/12/11 10:19:59;;;;;;;133.13;22.48;;;;;;;;;;5050368;28;20476;-79
2021/12/11 10:22:30;;;;;;;183.82;28.65;;;;;;;;;;5049642;28;20081;-80
2021/12/11 10:24:57;;;;;;;125.20;22.10;;;;;;;;;;5048865;28;20578;-80
2021/12/11 10:27:25;;;;;;;138.52;21.13;;;;;;;;;;5046164;28;20523;-80
2021/12/11 10:29:52;;;;;;;164.15;29.52;;;;;;;;;;5040180;28;20196;-79
2021/12/11 10:32:21;;;;;;;203.63;28.80;;;;;;;;;;5048320;28;20579;-80
2021/12/11 10:34:49;;;;;;;133.77;26.33;;;;;;;;;;5037799;28;20084;-80
2021/12/11 10:37:18;;;;;;;199.13;52.25;;;;;;;;;;5048998;28;20049;-80
2021/12/11 10:39:46;;;;;;;161.15;29.15;;;;;;;;;;5056984;28;20538;-80
2021/12/11 10:42:13;;;;;;;202.68;35.28;;;;;;;;;;5068611;28;20102;-80
2021/12/11 10:44:41;;;;;;;152.80;25.30;;;;;;;;;;5069512;28;20045;-79
2021/12/11 10:47:18;;;;;;;224.25;24.42;;;;;;;;;;5047576;28;20057;-79
2021/12/11 10:50:07;;;;;;;161.63;23.65;;;;;;;;;;5043758;28;20148;-79
2021/12/11 10:52:33;;;;;;;153.68;21.70;;;;;;;;;;5043580;28;20057;-80
2021/12/11 10:55:01;;;;;;;113.53;20.77;;;;;;;;;;5046202;28;20107;-79
2021/12/11 10:57:27;;;;;;;171.85;21.92;;;;;;;;;;5042313;28;20104;-79
2021/12/11 10:59:55;;;;;;;86.63;19.15;;;;;;;;;;5030001;28;20774;-79
2021/12/11 11:02:24;;;;;;;149.63;22.35;;;;;;;;;;5044267;28;20096;-78
2021/12/11 11:04:56;;;;;;;168.63;24.67;;;;;;;;;;5048664;28;20041;-78
2021/12/11 11:07:23;;;;;;;181.85;24.33;;;;;;;;;;5036381;28;20053;-80
2021/12/11 11:09:49;;;;;;;109.38;19.30;;;;;;;;;;5051933;28;20053;-79
2021/12/11 11:12:17;;;;;;;97.97;21.40;;;;;;;;;;5051546;28;20060;-79
2021/12/11 11:14:45;;;;;;;71.50;20.50;;;;;;;;;;5053602;28;20534;-79
2021/12/11 11:17:13;;;;;;;86.53;18.45;;;;;;;;;;5032712;28;20137;-78
2021/12/11 11:19:41;;;;;;;67.25;18.05;;;;;;;;;;5041579;28;20053;-79
2021/12/11 11:22:09;;;;;;;53.67;18.08;;;;;;;;;;5038214;28;20935;-79
2021/12/11 11:24:39;;;;;;;74.57;18.33;;;;;;;;;;5053009;28;20208;-79
2021/12/11 11:27:06;;;;;;;72.67;19.13;;;;;;;;;;5052101;28;20112;-80
2021/12/11 11:29:33;;;;;;;57.20;19.10;;;;;;;;;;5051353;28;20268;-79
2021/12/11 11:32:01;;;;;;;76.63;20.17;;;;;;;;;;5040339;28;20128;-79
2021/12/11 11:34:29;;;;;;;55.45;19.20;;;;;;;;;;5063523;28;20136;-79
2021/12/11 11:36:57;;;;;;;50.83;18.42;;;;;;;;;;5051489;28;20507;-79
2021/12/11 11:39:24;;;;;;;52.28;17.45;;;;;;;;;;5042567;28;20097;-79
2021/12/11 11:41:55;;;;;;;71.47;19.42;;;;;;;;;;5033581;28;20104;-78
2021/12/11 11:44:24;;;;;;;49.60;18.83;;;;;;;;;;5033376;28;20061;-80
2021/12/11 11:46:51;;;;;;;50.42;20.08;;;;;;;;;;5046307;28;20088;-79
2021/12/11 11:49:18;;;;;;;47.40;21.20;;;;;;;;;;5050856;28;20508;-80
2021/12/11 11:51:48;;;;;;;53.58;21.50;;;;;;;;;;5043508;28;20124;-78
2021/12/11 11:54:17;;;;;;;43.92;18.95;;;;;;;;;;5039785;28;20202;-79
2021/12/11 11:57:03;;;;;;;41.80;17.42;;;;;;;;;;5043289;28;20201;-80
2021/12/11 11:59:30;;;;;;;36.17;16.67;;;;;;;;;;5043481;28;20100;-78
2021/12/11 12:02:00;;;;;;;48.35;19.98;;;;;;;;;;5051292;28;20558;-79
2021/12/11 12:04:27;;;;;;;;;;;;;;;;;;5051503;28;20132;-79
2021/12/11 12:06:59;;;;;;;55.65;22.10;;;;;;;;;;5049338;28;45935;-79
2021/12/11 12:09:29;;;;;;;52.20;19.95;;;;;;;;;;5051558;28;20071;-79
2021/12/11 12:11:58;;;;;;;48.05;19.35;;;;;;;;;;5049935;28;20116;-78
2021/12/11 12:14:26;;;;;;;44.10;20.73;;;;;;;;;;5050720;28;20148;-77
2021/12/11 12:16:52;;;;;;;38.88;18.65;;;;;;;;;;5043715;28;20097;-76
2021/12/11 12:19:20;;;;;;;37.95;18.42;;;;;;;;;;5051646;28;20162;-76
2021/12/11 12:21:48;;;;;;;36.67;17.83;;;;;;;;;;5057616;28;20092;-78
2021/12/11 12:24:17;;;;;;;39.65;18.92;;;;;;;;;;5050755;28;20525;-77
2021/12/11 12:26:43;;;;;;;36.72;17.30;;;;;;;;;;5048043;28;20864;-78
2021/12/11 12:29:10;;;;;;;43.65;19.88;;;;;;;;;;5050577;28;20061;-77
2021/12/11 12:31:58;;;;;;;44.60;20.35;;;;;;;;;;5051760;28;20054;-79
2021/12/11 12:34:25;;;;;;;35.92;17.02;;;;;;;;;;5049624;28;20060;-78
2021/12/11 12:36:52;;;;;;;32.05;14.85;;;;;;;;;;5051545;28;20080;-77
2021/12/11 12:39:20;;;;;;;30.20;15.75;;;;;;;;;;5059579;28;20097;-79
2021/12/11 12:41:53;;;;;;;46.38;22.15;;;;;;;;;;5049672;28;20108;-79
2021/12/11 12:44:24;;;;;;;37.38;16.95;;;;;;;;;;5050505;28;20166;-77
2021/12/11 12:47:09;;;;;;;32.50;15.85;;;;;;;;;;5050365;28;20045;-77
2021/12/11 12:49:36;;;;;;;33.97;17.63;;;;;;;;;;5044828;28;20076;-78
2021/12/11 12:52:08;;;;;;;37.15;17.98;;;;;;;;;;5049180;28;20527;-79
2021/12/11 12:54:35;;;;;;;47.05;22.15;;;;;;;;;;5049859;28;20077;-78
2021/12/11 12:57:11;;;;;;;51.33;24.10;;;;;;;;;;5052523;28;20112;-79
2021/12/11 12:59:39;;;;;;;48.95;22.02;;;;;;;;;;5049554;28;20060;-79
2021/12/11 13:02:08;;;;;;;50.92;24.25;;;;;;;;;;5051312;28;20068;-78
2021/12/11 13:04:41;;;;;;;40.65;20.27;;;;;;;;;;5050889;28;20077;-79
2021/12/11 13:07:11;;;;;;;33.35;16.40;;;;;;;;;;5050424;28;20053;-78
2021/12/11 13:09:41;;;;;;;40.20;20.05;;;;;;;;;;5039171;28;20573;-79
2021/12/11 13:12:13;;;;;;;42.25;20.02;;;;;;;;;;5052602;28;20594;-78
2021/12/11 13:14:41;;;;;;;54.38;29.15;;;;;;;;;;5072520;28;20553;-78
2021/12/11 13:17:10;;;;;;;55.72;28.27;;;;;;;;;;5046770;28;20049;-76
2021/12/11 13:19:42;;;;;;;54.17;23.52;;;;;;;;;;5037853;28;20089;-77
2021/12/11 13:22:11;;;;;;;54.30;30.17;;;;;;;;;;5048633;28;20106;-79
2021/12/11 13:24:41;;;;;;;47.03;24.02;;;;;;;;;;5035534;28;20068;-78
2021/12/11 13:27:09;;;;;;;52.42;26.30;;;;;;;;;;5050415;28;20058;-79
2021/12/11 13:29:38;;;;;;;43.60;23.45;;;;;;;;;;5045587;28;20057;-78
2021/12/11 13:32:17;;;;;;;46.30;24.30;;;;;;;;;;5041353;28;20112;-79
2021/12/11 13:34:46;;;;;;;61.35;30.48;;;;;;;;;;5050310;28;20064;-79
2021/12/11 13:37:14;;;;;;;52.03;25.77;;;;;;;;;;5049806;28;20072;-79
2021/12/11 13:39:43;;;;;;;67.70;33.78;;;;;;;;;;5044710;28;20109;-80
2021/12/11 13:42:12;;;;;;;52.15;25.60;;;;;;;;;;5052166;28;20108;-78
2021/12/11 13:44:40;;;;;;;44.47;21.98;;;;;;;;;;5050447;28;20533;-79
2021/12/11 13:47:10;;;;;;;64.97;26.13;;;;;;;;;;5047917;28;20054;-79
2021/12/11 13:49:37;;;;;;;43.13;20.20;;;;;;;;;;5049918;28;20050;-79
2021/12/11 13:52:04;;;;;;;43.13;21.70;;;;;;;;;;5031995;28;20054;-77
2021/12/11 13:54:31;;;;;;;42.92;21.45;;;;;;;;;;5040489;28;20104;-78
2021/12/11 13:56:59;;;;;;;37.67;18.40;;;;;;;;;;5039233;28;20112;-79
2021/12/11 13:59:26;;;;;;;41.08;19.60;;;;;;;;;;5051230;28;20045;-78
2021/12/11 14:01:55;;;;;;;50.25;24.17;;;;;;;;;;5048965;28;20053;-79
2021/12/11 14:04:23;;;;;;;41.67;19.88;;;;;;;;;;5047077;28;20888;-79
2021/12/11 14:07:09;;;;;;;48.55;23.63;;;;;;;;;;5045978;28;20577;-79
2021/12/11 14:09:38;;;;;;;103.55;54.25;;;;;;;;;;5044664;28;20045;-78
2021/12/11 14:12:05;;;;;;;56.42;27.08;;;;;;;;;;5048487;28;20050;-78
2021/12/11 14:14:33;;;;;;;55.30;26.73;;;;;;;;;;5034054;28;20154;-78
2021/12/11 14:17:00;;;;;;;48.10;22.48;;;;;;;;;;5041654;28;20110;-78
2021/12/11 14:19:26;;;;;;;41.08;20.48;;;;;;;;;;5044226;28;20050;-79
2021/12/11 14:21:54;;;;;;;44.35;20.67;;;;;;;;;;5054664;28;20076;-78
2021/12/11 14:24:21;;;;;;;34.95;17.00;;;;;;;;;;5060907;28;20053;-79
2021/12/11 14:26:47;;;;;;;35.40;16.73;;;;;;;;;;5048413;28;20084;-79
2021/12/11 14:29:15;;;;;;;36.45;17.02;;;;;;;;;;5048333;28;20110;-78
2021/12/11 14:31:42;;;;;;;34.67;15.82;;;;;;;;;;5048326;28;20050;-78
2021/12/11 14:34:09;;;;;;;37.20;16.58;;;;;;;;;;5047577;28;20053;-78
2021/12/11 14:36:36;;;;;;;34.95;16.67;;;;;;;;;;5048426;28;20899;-79
2021/12/11 14:39:08;;;;;;;35.70;15.85;;;;;;;;;;5051555;28;20049;-79
2021/12/11 14:41:35;;;;;;;87.53;58.17;;;;;;;;;;5056630;28;20053;-80